Brindisi / Casale Airport LIBR

Flugplatz Daten

Name: Brindisi / Casale Airport

Ident: LIBR

Lat: 40,6576004

Long: 17,9470005

Platzhöhe: 47 ft

IataCode: BDS

City: Brindisi

Homepage: http://www.seap-puglia.it/default.asp?idlingua=2&idcontenuto=29

Metar

2021/12/03 23:20
LIBR 032320Z 35012KT 9999 SCT030 13/10 Q1007

Taf

2021/12/03 00:00
TAF LIBR 032300Z 0400/0424 34015KT 9999 SCT015
TEMPO 0400/0403 RA
TEMPO 0402/0415 34020G30KT
BECMG 0416/0418 VRB04KT
Gewünschte Webcam nicht vorhanden? Dann fügen Sie eine hinzu. Sie wird dann so schnell wie möglich freigeschaltet
Url: Title: